createdAt,value
2023-06-25T00:00:11.925Z,20.49
2023-06-25T00:03:01.399Z,20.32
2023-06-25T00:05:49.437Z,20.85
2023-06-25T00:08:37.415Z,20.59
2023-06-25T00:11:25.165Z,20.34
2023-06-25T00:14:13.234Z,20.99
2023-06-25T00:17:01.186Z,20.40
2023-06-25T00:19:50.461Z,20.49
2023-06-25T00:22:38.404Z,20.53
2023-06-25T00:25:27.746Z,21.06
2023-06-25T00:28:15.655Z,20.30
2023-06-25T00:31:03.407Z,20.29
2023-06-25T00:33:51.346Z,20.33
2023-06-25T00:36:41.704Z,20.73
2023-06-25T00:39:30.308Z,20.56
2023-06-25T00:42:19.095Z,20.40
2023-06-25T00:45:08.052Z,20.32
2023-06-25T00:47:56.540Z,20.14
2023-06-25T00:50:44.639Z,20.41
2023-06-25T00:53:36.763Z,20.20
2023-06-25T00:56:29.235Z,20.18
2023-06-25T00:59:17.820Z,20.23
2023-06-25T01:02:14.931Z,20.15
2023-06-25T01:05:10.313Z,20.54
2023-06-25T01:08:01.054Z,20.57
2023-06-25T01:10:50.720Z,20.09
2023-06-25T01:13:38.487Z,20.60
2023-06-25T01:16:26.698Z,20.25
2023-06-25T01:19:14.403Z,20.56
2023-06-25T01:22:04.588Z,20.63
2023-06-25T01:24:53.844Z,20.52
2023-06-25T01:27:41.629Z,20.72
2023-06-25T01:30:32.810Z,20.34
2023-06-25T01:33:21.492Z,20.39
2023-06-25T01:36:10.153Z,20.80
2023-06-25T01:38:57.884Z,20.37
2023-06-25T01:41:47.906Z,20.37
2023-06-25T01:44:35.898Z,20.47
2023-06-25T01:47:23.754Z,20.23
2023-06-25T01:50:11.769Z,19.30
2023-06-25T01:52:59.738Z,19.53
2023-06-25T01:55:47.672Z,19.64
2023-06-25T01:58:37.062Z,19.87
2023-06-25T02:01:25.373Z,19.56
2023-06-25T02:04:13.121Z,19.45
2023-06-25T02:07:01.335Z,19.59
2023-06-25T02:09:49.295Z,19.70
2023-06-25T02:12:37.111Z,19.31
2023-06-25T02:15:26.343Z,19.28
2023-06-25T02:18:14.140Z,19.19
2023-06-25T02:21:02.019Z,19.11
2023-06-25T02:23:49.812Z,18.92
2023-06-25T02:26:37.746Z,19.77
2023-06-25T02:29:25.486Z,19.30
2023-06-25T02:32:14.825Z,19.05
2023-06-25T02:35:02.639Z,19.08
2023-06-25T02:37:50.543Z,19.10
2023-06-25T02:40:38.301Z,19.06
2023-06-25T02:43:26.076Z,19.03
2023-06-25T02:46:13.921Z,18.94
2023-06-25T02:49:03.201Z,19.31
2023-06-25T02:51:51.107Z,19.47
2023-06-25T02:54:38.998Z,19.58
2023-06-25T02:57:30.575Z,19.00
2023-06-25T03:00:19.102Z,18.65
2023-06-25T03:03:07.036Z,18.96
2023-06-25T03:05:56.346Z,19.36
2023-06-25T03:08:44.245Z,19.08
2023-06-25T03:11:32.190Z,18.88
2023-06-25T03:14:34.233Z,19.33
2023-06-25T03:17:23.349Z,19.82
2023-06-25T03:20:12.576Z,19.24
2023-06-25T03:23:02.004Z,18.86
2023-06-25T03:25:49.921Z,18.88
2023-06-25T03:28:37.590Z,18.76
2023-06-25T03:31:25.597Z,18.64
2023-06-25T03:34:13.451Z,18.73
2023-06-25T03:37:01.446Z,18.68
2023-06-25T03:39:50.618Z,18.71
2023-06-25T03:42:38.358Z,18.69
2023-06-25T03:45:26.329Z,18.99
2023-06-25T03:48:14.297Z,18.88
2023-06-25T03:51:02.366Z,19.00
2023-06-25T03:53:50.215Z,19.06
2023-06-25T03:56:39.624Z,19.15
2023-06-25T03:59:27.453Z,19.13
2023-06-25T04:02:15.492Z,19.00
2023-06-25T04:05:03.413Z,19.06
2023-06-25T04:07:51.253Z,19.16
2023-06-25T04:10:39.695Z,19.12
2023-06-25T04:13:28.974Z,19.34
2023-06-25T04:16:16.980Z,19.29
2023-06-25T04:19:04.749Z,19.18
2023-06-25T04:21:52.760Z,19.51
2023-06-25T04:24:40.478Z,19.98
2023-06-25T04:27:28.494Z,19.75
2023-06-25T04:30:17.904Z,19.71
2023-06-25T04:33:06.049Z,21.32
2023-06-25T04:35:53.934Z,21.22
2023-06-25T04:38:41.873Z,21.54
2023-06-25T04:41:29.683Z,21.46
2023-06-25T04:44:17.608Z,20.90
2023-06-25T04:47:07.183Z,21.54
2023-06-25T04:49:55.412Z,21.43
2023-06-25T04:52:43.428Z,21.10
2023-06-25T04:55:31.256Z,21.59
2023-06-25T04:58:19.160Z,21.96
2023-06-25T05:01:06.940Z,21.53
2023-06-25T05:03:56.540Z,21.85
2023-06-25T05:06:44.540Z,22.32
2023-06-25T05:09:32.394Z,21.21
2023-06-25T05:12:20.234Z,22.36
2023-06-25T05:15:08.970Z,21.62
2023-06-25T05:17:57.009Z,22.08
2023-06-25T05:20:46.178Z,22.42
2023-06-25T05:23:40.655Z,22.00
2023-06-25T05:26:28.909Z,21.82
2023-06-25T05:29:16.774Z,22.09
2023-06-25T05:32:07.490Z,22.34
2023-06-25T05:34:57.371Z,22.81
2023-06-25T05:37:46.728Z,22.92
2023-06-25T05:40:34.515Z,22.74
2023-06-25T05:43:22.540Z,22.93
2023-06-25T05:46:12.762Z,23.08
2023-06-25T05:49:00.766Z,22.68
2023-06-25T05:51:48.598Z,23.24
2023-06-25T05:54:37.805Z,22.84
2023-06-25T05:57:26.320Z,22.97
2023-06-25T06:00:14.542Z,23.39
2023-06-25T06:03:02.609Z,23.63
2023-06-25T06:05:50.520Z,23.52
2023-06-25T06:08:38.512Z,23.27
2023-06-25T06:11:29.102Z,23.88
2023-06-25T06:14:17.022Z,23.78
2023-06-25T06:17:05.174Z,23.70
2023-06-25T06:19:53.896Z,23.60
2023-06-25T06:22:42.514Z,23.58
2023-06-25T06:25:30.240Z,23.96
2023-06-25T06:28:19.444Z,24.16
2023-06-25T06:31:07.316Z,24.10
2023-06-25T06:33:55.255Z,24.40
2023-06-25T06:36:43.063Z,24.24
2023-06-25T06:39:31.047Z,24.20
2023-06-25T06:42:18.831Z,24.34
2023-06-25T06:45:09.117Z,24.15
2023-06-25T06:47:56.949Z,24.12
2023-06-25T06:50:44.985Z,24.34
2023-06-25T06:53:32.777Z,24.25
2023-06-25T06:56:20.648Z,24.19
2023-06-25T06:59:08.500Z,24.44
2023-06-25T07:01:57.909Z,24.66
2023-06-25T07:04:46.777Z,24.64
2023-06-25T07:07:34.598Z,24.83
2023-06-25T07:10:22.488Z,24.78
2023-06-25T07:13:10.362Z,24.61
2023-06-25T07:15:58.279Z,24.76
2023-06-25T07:18:47.444Z,24.78
2023-06-25T07:21:35.384Z,24.80
2023-06-25T07:24:23.233Z,24.74
2023-06-25T07:27:11.214Z,24.98
2023-06-25T07:29:59.145Z,25.14
2023-06-25T07:32:47.209Z,25.10
2023-06-25T07:35:36.510Z,25.11
2023-06-25T07:38:24.566Z,25.27
2023-06-25T07:41:12.565Z,25.34
2023-06-25T07:44:00.305Z,25.30
2023-06-25T07:46:48.349Z,25.40
2023-06-25T07:49:36.220Z,25.44
2023-06-25T07:52:25.602Z,25.65
2023-06-25T07:55:13.444Z,25.59
2023-06-25T07:58:01.407Z,25.79
2023-06-25T08:00:49.267Z,25.59
2023-06-25T08:03:37.421Z,25.77
2023-06-25T08:06:25.441Z,25.93
2023-06-25T08:09:14.766Z,26.09
2023-06-25T08:12:02.771Z,26.11
2023-06-25T08:14:51.064Z,26.06
2023-06-25T08:17:38.914Z,26.24
2023-06-25T08:20:26.686Z,26.26
2023-06-25T08:23:14.702Z,26.20
2023-06-25T08:26:03.906Z,26.41
2023-06-25T08:28:52.209Z,26.56
2023-06-25T08:31:40.095Z,26.56
2023-06-25T08:34:28.281Z,26.47
2023-06-25T08:37:18.726Z,26.45
2023-06-25T08:40:07.829Z,26.59
2023-06-25T08:42:57.032Z,26.71
2023-06-25T08:45:44.788Z,26.75
2023-06-25T08:48:35.736Z,26.81
2023-06-25T08:51:25.367Z,26.72
2023-06-25T08:54:13.988Z,26.80
2023-06-25T08:57:01.707Z,26.85
2023-06-25T08:59:51.155Z,26.90
2023-06-25T09:02:38.944Z,26.89
2023-06-25T09:05:28.145Z,27.02
2023-06-25T09:08:16.326Z,26.69
2023-06-25T09:11:04.198Z,26.98
2023-06-25T09:13:52.300Z,26.96
2023-06-25T09:16:51.937Z,27.15
2023-06-25T09:19:44.974Z,27.33
2023-06-25T09:22:33.022Z,27.05
2023-06-25T09:25:21.014Z,27.16
2023-06-25T09:28:11.608Z,27.21
2023-06-25T09:30:59.494Z,27.44
2023-06-25T09:33:53.525Z,27.35
2023-06-25T09:36:41.454Z,27.43
2023-06-25T09:39:29.285Z,27.52
2023-06-25T09:42:20.658Z,27.64
2023-06-25T09:45:11.434Z,27.60
2023-06-25T09:47:59.529Z,27.77
2023-06-25T09:50:50.453Z,27.56
2023-06-25T09:53:41.213Z,27.59
2023-06-25T09:56:29.757Z,27.62
2023-06-25T09:59:18.363Z,27.91
2023-06-25T10:02:09.048Z,27.86
2023-06-25T10:04:56.997Z,27.43
2023-06-25T10:07:47.423Z,27.70
2023-06-25T10:10:35.668Z,27.86
2023-06-25T10:13:24.056Z,27.98
2023-06-25T10:16:11.989Z,28.14
2023-06-25T10:19:00.537Z,28.10
2023-06-25T10:21:59.189Z,28.09
2023-06-25T10:24:52.210Z,28.16
2023-06-25T10:27:40.877Z,28.40
2023-06-25T10:30:37.948Z,28.47
2023-06-25T10:33:25.872Z,28.28
2023-06-25T10:36:14.003Z,28.15
2023-06-25T10:39:02.263Z,28.35
2023-06-25T10:41:51.378Z,28.48
2023-06-25T10:44:39.318Z,28.61
2023-06-25T10:47:27.155Z,28.61
2023-06-25T10:50:18.818Z,28.49
2023-06-25T10:53:14.033Z,28.59
2023-06-25T10:56:01.834Z,28.62
2023-06-25T10:58:57.692Z,28.78
2023-06-25T11:01:45.548Z,28.84
2023-06-25T11:04:33.598Z,28.82
2023-06-25T11:07:21.680Z,28.74
2023-06-25T11:10:09.877Z,28.64
2023-06-25T11:12:57.655Z,28.69
2023-06-25T11:15:47.104Z,28.86
2023-06-25T11:18:34.894Z,29.05
2023-06-25T11:21:22.760Z,28.94
2023-06-25T11:24:11.747Z,28.89
2023-06-25T11:27:00.185Z,29.03
2023-06-25T11:29:49.293Z,29.12
2023-06-25T11:32:40.639Z,29.07
2023-06-25T11:35:28.521Z,29.19
2023-06-25T11:38:26.578Z,29.15
2023-06-25T11:41:14.314Z,29.01
2023-06-25T11:44:02.306Z,28.92
2023-06-25T11:46:52.329Z,28.98
2023-06-25T11:49:41.622Z,29.27
2023-06-25T11:52:29.548Z,29.18
2023-06-25T11:55:20.038Z,29.33
2023-06-25T11:58:08.024Z,29.23
2023-06-25T12:00:55.901Z,29.36
2023-06-25T12:03:43.942Z,29.41
2023-06-25T12:06:33.210Z,29.59
2023-06-25T12:09:20.963Z,29.57
2023-06-25T12:12:09.376Z,29.50
2023-06-25T12:14:57.097Z,29.25
2023-06-25T12:17:44.845Z,29.51
2023-06-25T12:20:32.842Z,29.65
2023-06-25T12:23:22.125Z,29.47
2023-06-25T12:26:09.822Z,29.52
2023-06-25T12:28:57.759Z,29.56
2023-06-25T12:31:45.581Z,29.60
2023-06-25T12:34:33.691Z,29.57
2023-06-25T12:37:21.467Z,29.50
2023-06-25T12:40:11.540Z,29.41
2023-06-25T12:43:00.873Z,29.38
2023-06-25T12:45:49.687Z,29.18
2023-06-25T12:48:38.904Z,29.06
2023-06-25T12:51:26.724Z,29.27
2023-06-25T12:54:14.706Z,29.16
2023-06-25T12:57:03.908Z,29.48
2023-06-25T12:59:51.895Z,29.34
2023-06-25T13:02:40.444Z,29.34
2023-06-25T13:05:28.417Z,29.53
2023-06-25T13:08:16.176Z,29.37
2023-06-25T13:11:04.430Z,29.37
2023-06-25T13:13:53.508Z,29.18
2023-06-25T13:16:41.644Z,29.11
2023-06-25T13:19:29.548Z,29.12
2023-06-25T13:22:17.546Z,29.10
2023-06-25T13:25:06.128Z,29.29
2023-06-25T13:27:53.942Z,29.26
2023-06-25T13:30:43.740Z,29.43
2023-06-25T13:33:31.567Z,29.40
2023-06-25T13:36:19.544Z,29.30
2023-06-25T13:39:07.487Z,29.49
2023-06-25T13:41:55.460Z,29.48
2023-06-25T13:44:43.280Z,29.63
2023-06-25T13:47:32.504Z,29.31
2023-06-25T13:50:20.229Z,29.26
2023-06-25T13:53:08.154Z,29.31
2023-06-25T13:55:56.582Z,29.48
2023-06-25T13:58:44.493Z,29.46
2023-06-25T14:01:32.509Z,29.68
2023-06-25T14:04:21.874Z,29.42
2023-06-25T14:07:10.067Z,29.52
2023-06-25T14:09:58.047Z,29.45
2023-06-25T14:12:45.833Z,29.58
2023-06-25T14:15:33.568Z,29.23
2023-06-25T14:18:21.389Z,29.28
2023-06-25T14:21:10.538Z,29.32
2023-06-25T14:23:58.294Z,29.09
2023-06-25T14:26:46.210Z,29.07
2023-06-25T14:29:33.923Z,28.92
2023-06-25T14:32:22.185Z,28.88
2023-06-25T14:35:10.269Z,28.78
2023-06-25T14:37:59.534Z,28.65
2023-06-25T14:40:47.321Z,28.85
2023-06-25T14:43:35.095Z,28.90
2023-06-25T14:46:23.049Z,28.96
2023-06-25T14:49:10.932Z,28.85
2023-06-25T14:51:58.682Z,28.79
2023-06-25T14:54:47.815Z,28.83
2023-06-25T14:57:35.790Z,28.73
2023-06-25T15:00:23.912Z,28.59
2023-06-25T15:03:12.120Z,28.60
2023-06-25T15:06:09.943Z,28.54
2023-06-25T15:09:01.633Z,28.46
2023-06-25T15:11:51.061Z,28.56
2023-06-25T15:14:38.874Z,28.62
2023-06-25T15:17:26.717Z,28.57
2023-06-25T15:20:14.425Z,28.50
2023-06-25T15:23:02.186Z,28.57
2023-06-25T15:25:53.503Z,28.34
2023-06-25T15:28:45.457Z,28.43
2023-06-25T15:31:33.393Z,28.64
2023-06-25T15:34:21.417Z,28.55
2023-06-25T15:37:09.383Z,28.52
2023-06-25T15:39:57.186Z,28.77
2023-06-25T15:42:45.041Z,28.77
2023-06-25T15:45:34.272Z,28.65
2023-06-25T15:48:22.112Z,28.46
2023-06-25T15:51:09.987Z,28.53
2023-06-25T15:53:57.870Z,28.36
2023-06-25T15:56:48.544Z,28.51
2023-06-25T15:59:36.360Z,28.42
2023-06-25T16:02:25.787Z,28.62
2023-06-25T16:05:13.757Z,28.42
2023-06-25T16:08:01.767Z,27.75
2023-06-25T16:10:49.691Z,28.22
2023-06-25T16:13:37.712Z,28.12
2023-06-25T16:16:25.490Z,28.20
2023-06-25T16:19:45.598Z,28.25
2023-06-25T16:22:22.546Z,28.24
2023-06-25T16:25:10.624Z,28.15
2023-06-25T16:27:58.469Z,28.05
2023-06-25T16:30:46.716Z,27.93
2023-06-25T16:33:34.422Z,27.98
2023-06-25T16:36:23.742Z,27.80
2023-06-25T16:39:11.547Z,28.16
2023-06-25T16:41:59.501Z,28.17
2023-06-25T16:44:48.797Z,27.83
2023-06-25T16:47:36.804Z,27.87
2023-06-25T16:50:24.711Z,27.88
2023-06-25T16:53:14.007Z,27.71
2023-06-25T16:56:01.992Z,27.77
2023-06-25T16:58:49.853Z,27.72
2023-06-25T17:01:37.922Z,27.65
2023-06-25T17:04:25.733Z,27.70
2023-06-25T17:07:13.689Z,27.61
2023-06-25T17:10:03.105Z,27.78
2023-06-25T17:12:51.082Z,27.40
2023-06-25T17:15:39.118Z,27.43
2023-06-25T17:18:27.101Z,27.39
2023-06-25T17:21:14.943Z,27.26
2023-06-25T17:24:02.721Z,27.41
2023-06-25T17:26:52.909Z,27.33
2023-06-25T17:29:41.432Z,26.95
2023-06-25T17:32:29.453Z,26.74
2023-06-25T17:35:17.568Z,26.79
2023-06-25T17:38:05.513Z,26.85
2023-06-25T17:40:53.470Z,26.87
2023-06-25T17:43:42.888Z,26.90
2023-06-25T17:46:31.001Z,26.64
2023-06-25T17:49:18.957Z,26.89
2023-06-25T17:52:07.923Z,26.81
2023-06-25T17:54:55.612Z,26.83
2023-06-25T17:57:43.369Z,26.90
2023-06-25T18:00:32.565Z,26.93
2023-06-25T18:03:20.552Z,26.90
2023-06-25T18:06:08.543Z,27.33
2023-06-25T18:08:56.527Z,27.06
2023-06-25T18:11:44.313Z,27.39
2023-06-25T18:14:32.294Z,27.33
2023-06-25T18:17:21.441Z,27.16
2023-06-25T18:20:11.020Z,27.28
2023-06-25T18:22:58.816Z,27.34
2023-06-25T18:25:46.997Z,27.35
2023-06-25T18:28:35.048Z,27.39
2023-06-25T18:31:22.762Z,27.21
2023-06-25T18:34:12.708Z,27.28
2023-06-25T18:37:00.478Z,27.41
2023-06-25T18:39:48.340Z,27.28
2023-06-25T18:42:36.093Z,27.26
2023-06-25T18:45:24.178Z,27.39
2023-06-25T18:48:11.988Z,27.08
2023-06-25T18:51:01.348Z,26.79
2023-06-25T18:53:49.164Z,26.87
2023-06-25T18:56:37.171Z,26.75
2023-06-25T18:59:24.918Z,26.66
2023-06-25T19:02:12.798Z,26.74
2023-06-25T19:05:01.117Z,26.79
2023-06-25T19:07:50.283Z,26.69
2023-06-25T19:10:38.320Z,26.38
2023-06-25T19:13:26.277Z,26.99
2023-06-25T19:16:14.168Z,26.66
2023-06-25T19:19:02.109Z,26.59
2023-06-25T19:21:50.852Z,26.99
2023-06-25T19:24:40.148Z,26.99
2023-06-25T19:27:28.199Z,26.77
2023-06-25T19:30:15.948Z,26.68
2023-06-25T19:33:05.221Z,27.23
2023-06-25T19:35:53.181Z,26.79
2023-06-25T19:38:40.950Z,26.51
2023-06-25T19:41:29.978Z,25.94
2023-06-25T19:44:17.917Z,26.23
2023-06-25T19:47:06.299Z,26.08
2023-06-25T19:49:54.187Z,26.14
2023-06-25T19:52:42.180Z,25.75
2023-06-25T19:55:30.090Z,25.90
2023-06-25T19:58:19.608Z,25.94
2023-06-25T20:01:07.604Z,25.55
2023-06-25T20:03:55.638Z,25.96
2023-06-25T20:06:43.581Z,25.29
2023-06-25T20:09:32.316Z,25.09
2023-06-25T20:12:20.150Z,24.74
2023-06-25T20:15:10.552Z,24.89
2023-06-25T20:17:58.435Z,24.98
2023-06-25T20:20:46.276Z,24.65
2023-06-25T20:23:34.205Z,24.89
2023-06-25T20:26:22.175Z,24.77
2023-06-25T20:29:10.073Z,24.93
2023-06-25T20:31:59.344Z,25.04
2023-06-25T20:34:47.405Z,25.08
2023-06-25T20:37:35.193Z,25.15
2023-06-25T20:40:23.251Z,25.27
2023-06-25T20:43:11.054Z,25.44
2023-06-25T20:46:02.975Z,25.95
2023-06-25T20:48:52.160Z,26.30
2023-06-25T20:51:39.893Z,25.98
2023-06-25T20:54:29.573Z,26.24
2023-06-25T20:57:17.324Z,26.27
2023-06-25T21:00:06.445Z,26.04
2023-06-25T21:02:56.755Z,25.39
2023-06-25T21:05:46.585Z,24.85
2023-06-25T21:08:34.622Z,25.39
2023-06-25T21:11:22.426Z,25.80
2023-06-25T21:14:10.168Z,25.01
2023-06-25T21:16:57.904Z,24.51
2023-06-25T21:19:45.643Z,25.05
2023-06-25T21:22:35.145Z,24.82
2023-06-25T21:25:23.078Z,25.24
2023-06-25T21:28:10.836Z,25.92
2023-06-25T21:30:58.917Z,25.32
2023-06-25T21:33:46.888Z,25.17
2023-06-25T21:36:34.902Z,24.99
2023-06-25T21:39:24.306Z,24.90
2023-06-25T21:42:12.139Z,24.69
2023-06-25T21:45:00.034Z,24.17
2023-06-25T21:47:47.741Z,23.82
2023-06-25T21:50:37.120Z,22.99
2023-06-25T21:53:25.396Z,23.77
2023-06-25T21:56:14.782Z,23.28
2023-06-25T21:59:02.640Z,22.59
2023-06-25T22:01:50.792Z,22.48
2023-06-25T22:04:38.581Z,22.22
2023-06-25T22:07:26.870Z,22.67
2023-06-25T22:10:14.775Z,22.58
2023-06-25T22:13:04.016Z,22.13
2023-06-25T22:15:51.789Z,21.84
2023-06-25T22:18:39.771Z,22.08
2023-06-25T22:21:29.463Z,21.71
2023-06-25T22:24:17.394Z,21.60
2023-06-25T22:27:05.912Z,21.63
2023-06-25T22:29:55.055Z,22.31
2023-06-25T22:32:43.264Z,21.98
2023-06-25T22:35:31.308Z,22.25
2023-06-25T22:38:20.585Z,22.26
2023-06-25T22:41:08.409Z,22.82
2023-06-25T22:43:56.300Z,22.10
2023-06-25T22:46:46.190Z,21.53
2023-06-25T22:49:34.056Z,22.00
2023-06-25T22:52:21.848Z,21.91
2023-06-25T22:55:10.063Z,22.11
2023-06-25T22:57:58.002Z,21.62
2023-06-25T23:00:45.808Z,21.14
2023-06-25T23:03:35.250Z,21.27
2023-06-25T23:06:23.346Z,21.72
2023-06-25T23:09:14.944Z,21.55
2023-06-25T23:12:02.923Z,21.85
2023-06-25T23:14:50.598Z,22.47
2023-06-25T23:17:38.617Z,21.92
2023-06-25T23:20:27.845Z,21.39
2023-06-25T23:23:17.073Z,22.20
2023-06-25T23:26:09.198Z,22.60
2023-06-25T23:28:57.294Z,21.88
2023-06-25T23:31:45.650Z,21.88
2023-06-25T23:34:33.821Z,21.24
2023-06-25T23:37:25.653Z,21.65
2023-06-25T23:40:14.414Z,21.54
2023-06-25T23:43:02.412Z,21.33
2023-06-25T23:45:50.279Z,21.75
2023-06-25T23:48:38.348Z,20.02
2023-06-25T23:51:26.187Z,21.52
2023-06-25T23:54:15.629Z,21.36
2023-06-25T23:57:03.413Z,21.44
2023-06-25T23:59:51.285Z,21.59
